Clear Lake City, Texas
Current Conditions -  °F | °C
As of 9:50 AM on Sunday 23 Nov 2014 (Local Time) from KEFD Reporting Station
Clear Clear  
Wind Chill: 66°   Ceiling: Unl
Heat Index: 66°   Visibility: 10mi
Dew Point: 63°   Wind: 15mph
Humidity: 88%   Direction: 240°WSW
Pressure: 29.7"   Gusts: NA
Location:  29.5828°N, 95.0861°W
Report Text: KEFD 231550Z 24013KT 10SM CLR 19/17 A2970
Loading
Personal Weather Stations






























Interactive Weather Map New forecast layout! Learn more

10-Day Weather Forecast

Advertisements
Track Severe Weather on mobile